Saint Poelten, Austria
Current Conditions -  °F | °C
As of 2:50 PM on Thursday 30 Oct 2014 (Local Time) from LOXT Reporting Station
Broken Clouds Broken Clouds  
Wind Chill: 50°   Ceiling: 4300
Heat Index: 50°   Visibility: 4mi
Dew Point: 43°   Wind: 2mph
Humidity: 76%   Direction: NA
Pressure: 30.3"   Gusts: NA
Location:  48.2°N, 15.62°E
Report Text: LOXT 301250Z VRB02KT 7000 BKN043SC 10/06 Q1026 NOSIG RMK OVC
Loading
Personal Weather Stations






























Interactive Weather Map
Tropical Storm Tracking
New forecast layout! Learn more

10-Day Weather Forecast

Advertisements
Track Severe Weather on mobile